Wetterstation Vordersexau
Wetterdaten: Woche 09.06.14 - 15.06.14 (KW24)
Datum Zeit Temp. A. Feuchte A. Luftdruck Regen Wind Richtung Taupunkt Windchill Windben
09.06.2014 00:00 20,8 C 68 % 987,6 hPa 0,0 l/m 0,7 km/h NO 14,7 C 20,8 C 0,7 km/h
09.06.2014 01:00 19,6 C 68 % 987,8 hPa 0,0 l/m 0,0 km/h O-NO 13,5 C 19,6 C 0,0 km/h
09.06.2014 02:00 17,7 C 76 % 987,7 hPa 0,0 l/m 0,0 km/h O-NO 13,4 C 17,7 C 0,0 km/h
09.06.2014 03:00 16,7 C 77 % 987,9 hPa 0,0 l/m 0,0 km/h SO 12,6 C 16,7 C 0,0 km/h
09.06.2014 04:00 15,8 C 78 % 987,8 hPa 0,0 l/m 0,0 km/h O-SO 12,0 C 15,8 C 0,0 km/h
09.06.2014 05:00 15,3 C 80 % 987,9 hPa 0,0 l/m 0,6 km/h O-SO 11,9 C 15,3 C 0,4 km/h
09.06.2014 06:00 16,4 C 78 % 987,8 hPa 0,0 l/m 0,0 km/h O-SO 12,6 C 16,4 C 0,0 km/h
09.06.2014 07:00 18,9 C 74 % 988,2 hPa 0,0 l/m 1,9 km/h S-SO 14,2 C 18,9 C 1,1 km/h
09.06.2014 08:00 28,9 C 51 % 988,4 hPa 0,0 l/m 1,9 km/h SO 17,7 C 28,9 C 1,1 km/h
09.06.2014 09:00 33,0 C 42 % 988,4 hPa 0,0 l/m 0,0 km/h W-NW 18,3 C 33,0 C 0,0 km/h
09.06.2014 10:00 36,7 C 38 % 988,3 hPa 0,0 l/m 0,0 km/h W-SW 20,0 C 36,7 C 0,0 km/h
09.06.2014 11:00 37,5 C 29 % 988,1 hPa 0,0 l/m 0,0 km/h W-NW 16,4 C 37,5 C 0,0 km/h
09.06.2014 12:00 36,6 C 26 % 987,6 hPa 0,0 l/m 1,9 km/h NW 13,9 C 36,6 C 1,1 km/h
09.06.2014 13:00 37,9 C 29 % 987,1 hPa 0,0 l/m 0,0 km/h NW 16,7 C 37,9 C 0,0 km/h
09.06.2014 14:00 38,3 C 26 % 986,7 hPa 0,0 l/m 2,6 km/h W-NW 15,4 C 38,3 C 1,4 km/h
09.06.2014 15:00 40,6 C 24 % 986,1 hPa 0,0 l/m 0,0 km/h W 16,0 C 40,6 C 0,0 km/h
09.06.2014 16:00 42,9 C 23 % 985,5 hPa 0,0 l/m 0,0 km/h W-NW 17,3 C 42,9 C 0,0 km/h
09.06.2014 17:00 43,8 C 21 % 984,9 hPa 0,0 l/m 18,1 km/h W 16,6 C 43,8 C 10,1 km/h
09.06.2014 18:00 44,5 C 21 % 984,8 hPa 0,0 l/m 0,0 km/h S-SO 17,1 C 44,5 C 0,0 km/h
09.06.2014 19:00 36,5 C 36 % 985,0 hPa 0,0 l/m 0,0 km/h SO 19,0 C 36,5 C 0,0 km/h
09.06.2014 20:00 29,9 C 51 % 985,4 hPa 0,0 l/m 0,0 km/h SO 18,6 C 29,9 C 0,0 km/h
09.06.2014 21:00 26,8 C 52 % 985,6 hPa 0,0 l/m 0,0 km/h S-SO 16,1 C 26,8 C 0,0 km/h
09.06.2014 22:00 23,6 C 60 % 986,6 hPa 0,0 l/m 0,0 km/h S 15,4 C 23,6 C 0,0 km/h
09.06.2014 23:00 23,8 C 52 % 987,4 hPa 0,0 l/m 5,8 km/h O-SO 13,3 C 23,8 C 5,8 km/h
10.06.2014 00:00 25,8 C 41 % 987,6 hPa 0,0 l/m 0,0 km/h N-NO 11,5 C 25,8 C 0,0 km/h
10.06.2014 01:00 23,2 C 50 % 987,0 hPa 0,0 l/m 1,4 km/h NO 12,2 C 23,2 C 1,4 km/h
10.06.2014 02:00 21,1 C 60 % 986,7 hPa 0,0 l/m 0,0 km/h NO 13,0 C 21,1 C 0,0 km/h
10.06.2014 03:00 20,4 C 58 % 986,4 hPa 0,0 l/m 0,0 km/h O-SO 11,9 C 20,4 C 0,0 km/h
10.06.2014 04:00 19,9 C 61 % 986,2 hPa 0,0 l/m 0,0 km/h SO 12,2 C 19,9 C 0,0 km/h
10.06.2014 05:00 20,5 C 58 % 986,2 hPa 0,0 l/m 0,0 km/h N-NO 11,9 C 20,5 C 0,0 km/h
10.06.2014 06:00 20,2 C 61 % 987,4 hPa 0,0 l/m 0,0 km/h O-NO 12,4 C 20,2 C 0,0 km/h
10.06.2014 07:00 21,3 C 60 % 988,8 hPa 0,0 l/m 0,0 km/h SO 13,2 C 21,3 C 0,0 km/h
10.06.2014 08:00 31,2 C 42 % 989,1 hPa 0,0 l/m 0,0 km/h S-SW 16,7 C 31,2 C 0,0 km/h
10.06.2014 09:00 34,4 C 36 % 989,2 hPa 0,0 l/m 3,9 km/h W 17,1 C 34,4 C 2,2 km/h
10.06.2014 10:00 34,8 C 33 % 988,9 hPa 0,0 l/m 2,6 km/h S-SW 16,1 C 34,8 C 1,4 km/h
10.06.2014 11:00 36,2 C 32 % 989,0 hPa 0,0 l/m 16,8 km/h W-NW 16,8 C 36,2 C 9,4 km/h
10.06.2014 12:00 33,8 C 35 % 989,0 hPa 0,0 l/m 2,5 km/h W-SW 16,2 C 33,8 C 2,5 km/h
10.06.2014 13:00 35,0 C 35 % 988,6 hPa 0,0 l/m 0,0 km/h S 17,2 C 35,0 C 0,0 km/h
10.06.2014 14:00 35,3 C 36 % 988,3 hPa 0,0 l/m 6,5 km/h W 17,9 C 35,3 C 3,6 km/h
10.06.2014 15:00 39,0 C 29 % 988,3 hPa 0,0 l/m 0,0 km/h W-SW 17,7 C 39,0 C 0,0 km/h
10.06.2014 16:00 41,4 C 25 % 987,2 hPa 0,0 l/m 0,0 km/h N 17,3 C 41,4 C 0,0 km/h
10.06.2014 17:00 43,1 C 23 % 987,3 hPa 0,0 l/m 0,0 km/h N 17,4 C 43,1 C 0,0 km/h
10.06.2014 18:00 34,4 C 32 % 987,4 hPa 0,0 l/m 5,2 km/h N-NO 15,3 C 34,4 C 2,9 km/h
10.06.2014 19:00 29,1 C 38 % 988,6 hPa 0,0 l/m 0,0 km/h S-SO 13,3 C 29,1 C 0,0 km/h
10.06.2014 20:00 28,2 C 50 % 988,8 hPa 0,0 l/m 0,0 km/h NO 16,8 C 28,2 C 0,0 km/h
10.06.2014 21:00 22,7 C 63 % 988,8 hPa 0,0 l/m 0,0 km/h SO 15,3 C 22,7 C 0,0 km/h
10.06.2014 22:00 20,9 C 71 % 989,7 hPa 0,0 l/m 0,0 km/h S-SW 15,4 C 20,9 C 0,0 km/h
10.06.2014 23:00 20,3 C 74 % 991,4 hPa 0,0 l/m 0,0 km/h O-NO 15,5 C 20,3 C 0,0 km/h
11.06.2014 00:00 21,6 C 70 % 991,5 hPa 0,0 l/m 0,0 km/h O-NO 15,9 C 21,6 C 0,0 km/h
11.06.2014 01:00 22,9 C 60 % 991,7 hPa 0,0 l/m 0,7 km/h N-NW 14,7 C 22,9 C 0,7 km/h
11.06.2014 02:00 20,8 C 67 % 991,3 hPa 0,0 l/m 0,0 km/h O-SO 14,4 C 20,8 C 0,0 km/h
11.06.2014 03:00 18,3 C 74 % 991,7 hPa 0,0 l/m 0,0 km/h SO 13,6 C 18,3 C 0,0 km/h
11.06.2014 04:00 16,3 C 79 % 991,9 hPa 0,0 l/m 0,0 km/h W-SW 12,6 C 16,3 C 0,0 km/h
11.06.2014 05:00 15,9 C 81 % 992,6 hPa 0,0 l/m 0,0 km/h SO 12,6 C 15,9 C 0,0 km/h
11.06.2014 06:00 15,5 C 82 % 992,9 hPa 0,0 l/m 0,0 km/h SO 12,4 C 15,5 C 0,0 km/h
11.06.2014 07:00 18,3 C 81 % 993,2 hPa 0,0 l/m 0,0 km/h W-SW 15,0 C 18,3 C 0,0 km/h
11.06.2014 08:00 29,5 C 48 % 993,3 hPa 0,0 l/m 0,0 km/h SW 17,3 C 29,5 C 0,0 km/h
11.06.2014 09:00 31,8 C 42 % 993,4 hPa 0,0 l/m 0,0 km/h S-SO 17,3 C 31,8 C 0,0 km/h
11.06.2014 10:00 32,6 C 39 % 992,6 hPa 0,0 l/m 0,0 km/h N-NO 16,8 C 32,6 C 0,0 km/h
11.06.2014 11:00 33,4 C 33 % 992,8 hPa 0,0 l/m 3,2 km/h SO 14,9 C 33,4 C 1,8 km/h
11.06.2014 12:00 32,6 C 35 % 993,0 hPa 0,0 l/m 1,9 km/h W-NW 15,1 C 32,6 C 1,1 km/h
11.06.2014 13:00 33,0 C 36 % 992,8 hPa 0,0 l/m 3,2 km/h SW 15,9 C 33,0 C 1,8 km/h
11.06.2014 14:00 34,4 C 37 % 992,6 hPa 0,0 l/m 0,0 km/h NW 17,6 C 34,4 C 0,0 km/h
11.06.2014 15:00 34,4 C 36 % 992,3 hPa 0,0 l/m 4,5 km/h N-NW 17,1 C 34,4 C 2,5 km/h
11.06.2014 16:00 36,9 C 31 % 992,2 hPa 0,0 l/m 1,9 km/h N-NO 16,9 C 36,9 C 1,1 km/h
11.06.2014 17:00 38,3 C 28 % 992,3 hPa 0,0 l/m 16,8 km/h O 16,5 C 38,3 C 9,4 km/h
11.06.2014 18:00 38,8 C 29 % 992,4 hPa 0,0 l/m 0,0 km/h S-SO 17,5 C 38,8 C 0,0 km/h
11.06.2014 19:00 33,9 C 36 % 993,0 hPa 0,0 l/m 18,1 km/h N-NO 16,7 C 33,9 C 10,1 km/h
11.06.2014 20:00 27,8 C 44 % 993,5 hPa 0,0 l/m 4,5 km/h NO 14,4 C 27,8 C 2,5 km/h
11.06.2014 21:00 25,0 C 53 % 993,7 hPa 0,0 l/m 1,1 km/h O 14,7 C 25,0 C 1,1 km/h
11.06.2014 22:00 22,1 C 63 % 994,3 hPa 0,0 l/m 0,0 km/h O 14,7 C 22,1 C 0,0 km/h
11.06.2014 23:00 19,6 C 71 % 994,2 hPa 0,0 l/m 0,0 km/h O-NO 14,2 C 19,6 C 0,0 km/h
12.06.2014 00:00 17,9 C 76 % 994,4 hPa 0,0 l/m 0,0 km/h O-NO 13,6 C 17,9 C 0,0 km/h
12.06.2014 01:00 17,8 C 79 % 994,4 hPa 0,0 l/m 0,0 km/h O 14,1 C 17,8 C 0,0 km/h
12.06.2014 02:00 16,3 C 81 % 994,0 hPa 0,0 l/m 0,0 km/h O-NO 13,0 C 16,3 C 0,0 km/h
12.06.2014 03:00 15,4 C 82 % 994,1 hPa 0,0 l/m 0,0 km/h O-NO 12,3 C 15,4 C 0,0 km/h
12.06.2014 04:00 15,6 C 83 % 994,1 hPa 0,0 l/m 0,0 km/h O-NO 12,7 C 15,6 C 0,0 km/h
12.06.2014 05:00 14,7 C 83 % 993,9 hPa 0,0 l/m 0,0 km/h N-NO 11,8 C 14,7 C 0,0 km/h
12.06.2014 06:00 15,2 C 84 % 994,0 hPa 0,0 l/m 0,0 km/h N-NO 12,5 C 15,2 C 0,0 km/h
12.06.2014 07:00 17,9 C 83 % 994,2 hPa 0,0 l/m 0,0 km/h SW 15,0 C 17,9 C 0,0 km/h
12.06.2014 08:00 25,1 C 67 % 994,4 hPa 0,0 l/m 0,0 km/h W 18,5 C 25,1 C 0,0 km/h
12.06.2014 09:00 29,3 C 55 % 994,4 hPa 0,0 l/m 7,1 km/h W-NW 19,3 C 29,2 C 4,0 km/h
12.06.2014 10:00 29,6 C 52 % 994,0 hPa 0,0 l/m 0,0 km/h W-SW 18,7 C 29,6 C 0,0 km/h
12.06.2014 11:00 31,5 C 50 % 993,9 hPa 0,0 l/m 6,5 km/h W-SW 19,8 C 31,5 C 3,6 km/h
12.06.2014 12:00 30,5 C 52 % 993,8 hPa 0,0 l/m 15,6 km/h W-NW 19,5 C 29,9 C 8,6 km/h
12.06.2014 13:00 31,6 C 49 % 993,2 hPa 0,0 l/m 5,8 km/h NW 19,6 C 31,6 C 3,2 km/h
12.06.2014 14:00 32,4 C 48 % 992,5 hPa 0,0 l/m 0,0 km/h N-NO 19,9 C 32,4 C 0,0 km/h
12.06.2014 15:00 34,9 C 43 % 992,0 hPa 0,0 l/m 20,7 km/h N-NO 20,4 C 34,9 C 11,5 km/h
12.06.2014 16:00 29,8 C 52 % 991,8 hPa 0,0 l/m 3,2 km/h N-NO 18,9 C 29,8 C 1,8 km/h
12.06.2014 17:00 28,7 C 55 % 991,7 hPa 0,0 l/m 1,9 km/h S 18,7 C 28,7 C 1,1 km/h
12.06.2014 18:00 27,5 C 57 % 991,3 hPa 0,0 l/m 1,3 km/h SO 18,2 C 27,5 C 0,7 km/h
12.06.2014 19:00 25,9 C 56 % 991,1 hPa 0,0 l/m 0,0 km/h S-SO 16,4 C 25,9 C 0,0 km/h
12.06.2014 20:00 24,3 C 62 % 991,6 hPa 0,0 l/m 0,0 km/h SO 16,5 C 24,3 C 0,0 km/h
12.06.2014 21:00 23,4 C 63 % 991,8 hPa 0,0 l/m 0,0 km/h SO 15,9 C 23,4 C 0,0 km/h
12.06.2014 22:00 19,9 C 71 % 992,3 hPa 0,0 l/m 0,0 km/h SO 14,5 C 19,9 C 0,0 km/h
12.06.2014 23:00 18,6 C 75 % 991,9 hPa 0,0 l/m 0,0 km/h SO 14,1 C 18,6 C 0,0 km/h
13.06.2014 00:00 18,6 C 79 % 992,1 hPa 0,0 l/m 0,0 km/h SO 14,9 C 18,6 C 0,0 km/h
13.06.2014 01:00 18,3 C 80 % 991,8 hPa 0,0 l/m 0,0 km/h O 14,8 C 18,3 C 0,0 km/h
13.06.2014 02:00 19,2 C 80 % 991,4 hPa 0,0 l/m 0,0 km/h O 15,7 C 19,2 C 0,0 km/h
13.06.2014 03:00 16,4 C 81 % 991,0 hPa 0,0 l/m 0,0 km/h O 13,1 C 16,4 C 0,0 km/h
13.06.2014 04:00 16,3 C 83 % 990,7 hPa 0,0 l/m 0,0 km/h O 13,4 C 16,3 C 0,0 km/h
13.06.2014 05:00 16,3 C 83 % 990,6 hPa 0,0 l/m 0,0 km/h S-SO 13,4 C 16,3 C 0,0 km/h
13.06.2014 06:00 16,9 C 83 % 990,8 hPa 0,0 l/m 0,0 km/h W 14,0 C 16,9 C 0,0 km/h
13.06.2014 07:00 18,2 C 79 % 990,9 hPa 0,0 l/m 0,0 km/h S 14,5 C 18,2 C 0,0 km/h
13.06.2014 08:00 20,6 C 72 % 990,7 hPa 0,0 l/m 1,9 km/h W 15,4 C 20,6 C 1,1 km/h
13.06.2014 09:00 21,9 C 65 % 991,0 hPa 0,0 l/m 0,0 km/h NW 15,0 C 21,9 C 0,0 km/h
13.06.2014 10:00 26,6 C 52 % 991,0 hPa 0,0 l/m 0,0 km/h NW 15,9 C 26,6 C 0,0 km/h
13.06.2014 11:00 30,3 C 48 % 990,7 hPa 0,0 l/m 0,0 km/h W-NW 18,0 C 30,3 C 0,0 km/h
13.06.2014 12:00 28,7 C 48 % 990,3 hPa 0,0 l/m 2,6 km/h N-NO 16,6 C 28,7 C 1,4 km/h
13.06.2014 13:00 29,3 C 40 % 989,9 hPa 0,0 l/m 11,7 km/h NW 14,3 C 28,8 C 6,5 km/h
13.06.2014 14:00 30,0 C 35 % 989,6 hPa 0,0 l/m 0,0 km/h N-NO 12,8 C 30,0 C 0,0 km/h
13.06.2014 15:00 31,6 C 31 % 988,9 hPa 0,0 l/m 0,0 km/h N-NW 12,4 C 31,6 C 0,0 km/h
13.06.2014 16:00 34,1 C 23 % 988,4 hPa 0,0 l/m 0,0 km/h NW 10,0 C 34,1 C 0,0 km/h
13.06.2014 17:00 35,6 C 20 % 987,8 hPa 0,0 l/m 17,5 km/h N-NO 9,1 C 35,6 C 9,7 km/h
13.06.2014 18:00 32,9 C 24 % 987,4 hPa 0,0 l/m 3,2 km/h N-NO 9,6 C 32,9 C 1,8 km/h
13.06.2014 19:00 29,8 C 30 % 987,4 hPa 0,0 l/m 0,0 km/h N-NO 10,3 C 29,8 C 0,0 km/h
13.06.2014 20:00 24,3 C 42 % 987,7 hPa 0,0 l/m 5,2 km/h NO 10,6 C 24,3 C 2,9 km/h
13.06.2014 21:00 19,8 C 51 % 987,9 hPa 0,0 l/m 0,0 km/h O-NO 9,4 C 19,8 C 0,0 km/h
13.06.2014 22:00 16,4 C 61 % 988,1 hPa 0,0 l/m 0,0 km/h NO 8,9 C 16,4 C 0,0 km/h
13.06.2014 23:00 18,2 C 59 % 988,3 hPa 0,0 l/m 0,0 km/h O-NO 10,1 C 18,2 C 0,0 km/h
14.06.2014 00:00 18,4 C 58 % 988,5 hPa 0,0 l/m 0,0 km/h N-NO 10,0 C 18,4 C 0,0 km/h
14.06.2014 01:00 17,7 C 57 % 988,6 hPa 0,0 l/m 0,0 km/h N-NO 9,1 C 17,7 C 0,0 km/h
14.06.2014 02:00 14,9 C 66 % 988,5 hPa 0,0 l/m 1,1 km/h O-NO 8,6 C 14,9 C 1,1 km/h
14.06.2014 03:00 13,2 C 73 % 988,5 hPa 0,0 l/m 0,0 km/h O-NO 8,5 C 13,2 C 0,0 km/h
14.06.2014 04:00 11,1 C 77 % 988,2 hPa 0,0 l/m 0,0 km/h W-NW 7,2 C 11,1 C 0,0 km/h
14.06.2014 05:00 10,8 C 81 % 988,0 hPa 0,0 l/m 0,0 km/h W-NW 7,7 C 10,8 C 0,0 km/h
14.06.2014 06:00 10,2 C 82 % 988,0 hPa 0,0 l/m 0,0 km/h W-NW 7,3 C 10,2 C 0,0 km/h
14.06.2014 07:00 14,1 C 82 % 987,8 hPa 0,0 l/m 0,0 km/h W-SW 11,1 C 14,1 C 0,0 km/h
14.06.2014 08:00 24,2 C 54 % 987,8 hPa 0,0 l/m 0,0 km/h N-NO 14,3 C 24,2 C 0,0 km/h
14.06.2014 09:00 26,5 C 42 % 987,7 hPa 0,0 l/m 0,0 km/h N-NO 12,5 C 26,5 C 0,0 km/h
14.06.2014 10:00 27,5 C 36 % 987,5 hPa 0,0 l/m 17,5 km/h N-NO 11,1 C 26,1 C 9,7 km/h
14.06.2014 11:00 24,3 C 41 % 987,6 hPa 0,0 l/m 3,2 km/h N-NO 10,2 C 24,3 C 1,8 km/h
14.06.2014 12:00 24,4 C 42 % 987,6 hPa 0,0 l/m 22,7 km/h N-NO 10,6 C 21,6 C 12,6 km/h
14.06.2014 13:00 25,6 C 41 % 987,7 hPa 0,0 l/m 4,5 km/h NO 11,4 C 25,6 C 2,5 km/h
14.06.2014 14:00 25,6 C 42 % 987,5 hPa 0,0 l/m 0,6 km/h NO 11,7 C 25,6 C 0,4 km/h
14.06.2014 15:00 26,1 C 42 % 987,8 hPa 0,0 l/m 16,8 km/h N 12,2 C 24,4 C 9,4 km/h
14.06.2014 16:00 25,0 C 42 % 987,5 hPa 0,0 l/m 20,7 km/h N-NO 11,2 C 22,6 C 11,5 km/h
14.06.2014 17:00 27,1 C 39 % 987,2 hPa 0,0 l/m 9,7 km/h N 11,9 C 26,5 C 5,4 km/h
14.06.2014 18:00 30,3 C 30 % 986,6 hPa 0,0 l/m 24,0 km/h N-NO 10,8 C 29,4 C 13,3 km/h
14.06.2014 19:00 25,3 C 37 % 987,0 hPa 0,0 l/m 13,0 km/h N-NO 9,6 C 24,0 C 7,2 km/h
14.06.2014 20:00 21,1 C 43 % 987,2 hPa 0,0 l/m 0,0 km/h N-NO 8,0 C 21,1 C 0,0 km/h
14.06.2014 21:00 18,6 C 45 % 987,7 hPa 0,0 l/m 1,1 km/h N-NO 6,4 C 18,6 C 1,1 km/h
14.06.2014 22:00 16,8 C 50 % 988,2 hPa 0,0 l/m 4,0 km/h NO 6,3 C 16,8 C 4,0 km/h
14.06.2014 23:00 16,4 C 52 % 988,7 hPa 0,0 l/m 0,0 km/h NO 6,5 C 16,4 C 0,0 km/h
15.06.2014 00:00 15,1 C 56 % 989,0 hPa 0,0 l/m 0,0 km/h NO 6,4 C 15,1 C 0,0 km/h
15.06.2014 01:00 12,9 C 63 % 988,9 hPa 0,0 l/m 0,0 km/h N-NO 6,0 C 12,9 C 0,0 km/h
15.06.2014 02:00 12,9 C 65 % 988,9 hPa 0,0 l/m 2,5 km/h N-NO 6,5 C 12,9 C 2,5 km/h
15.06.2014 03:00 13,8 C 61 % 988,7 hPa 0,0 l/m 0,0 km/h N-NO 6,4 C 13,8 C 0,0 km/h
15.06.2014 04:00 13,4 C 62 % 988,5 hPa 0,0 l/m 3,6 km/h N-NW 6,3 C 13,4 C 3,6 km/h
15.06.2014 05:00 12,0 C 65 % 988,7 hPa 0,0 l/m 0,0 km/h N-NO 5,6 C 12,0 C 0,0 km/h
15.06.2014 06:00 12,8 C 65 % 988,6 hPa 0,0 l/m 1,9 km/h W 6,4 C 12,8 C 1,1 km/h
15.06.2014 07:00 12,8 C 72 % 988,7 hPa 0,0 l/m 0,0 km/h SW 7,9 C 12,8 C 0,0 km/h
15.06.2014 08:00 20,9 C 55 % 988,9 hPa 0,0 l/m 9,1 km/h S-SW 11,5 C 19,9 C 5,0 km/h
15.06.2014 09:00 25,3 C 43 % 988,8 hPa 0,0 l/m 5,8 km/h N-NO 11,8 C 25,3 C 3,2 km/h
15.06.2014 10:00 25,9 C 33 % 988,5 hPa 0,0 l/m 34,3 km/h N-NO 8,4 C 22,8 C 19,1 km/h
15.06.2014 11:00 26,8 C 32 % 988,3 hPa 0,0 l/m 1,9 km/h N-NO 8,7 C 26,8 C 1,1 km/h
15.06.2014 12:00 24,8 C 36 % 988,4 hPa 0,0 l/m 0,0 km/h N-NO 8,7 C 24,8 C 0,0 km/h
15.06.2014 13:00 26,4 C 31 % 988,3 hPa 0,0 l/m 20,7 km/h N-NO 7,9 C 24,4 C 11,5 km/h
15.06.2014 14:00 26,9 C 31 % 987,8 hPa 0,0 l/m 7,8 km/h O-SO 8,3 C 26,6 C 4,3 km/h
15.06.2014 15:00 28,0 C 30 % 987,4 hPa 0,0 l/m 0,0 km/h N-NO 8,8 C 28,0 C 0,0 km/h
15.06.2014 16:00 28,1 C 29 % 987,3 hPa 0,0 l/m 4,5 km/h N 8,4 C 28,1 C 2,5 km/h
15.06.2014 17:00 32,8 C 24 % 987,0 hPa 0,0 l/m 1,3 km/h O-SO 9,5 C 32,8 C 0,7 km/h
15.06.2014 18:00 27,6 C 30 % 987,1 hPa 0,0 l/m 0,0 km/h NO 8,4 C 27,6 C 0,0 km/h
15.06.2014 19:00 22,3 C 36 % 987,3 hPa 0,0 l/m 0,0 km/h N-NO 6,5 C 22,3 C 0,0 km/h
15.06.2014 20:00 21,6 C 40 % 987,7 hPa 0,0 l/m 0,0 km/h NO 7,4 C 21,6 C 0,0 km/h
15.06.2014 21:00 18,8 C 44 % 988,0 hPa 0,0 l/m 0,0 km/h N-NO 6,3 C 18,8 C 0,0 km/h
15.06.2014 22:00 15,9 C 52 % 988,4 hPa 0,0 l/m 0,0 km/h N 6,1 C 15,9 C 0,0 km/h
15.06.2014 23:00 14,6 C 56 % 988,7 hPa 0,0 l/m 0,7 km/h SO 5,9 C 14,6 C 0,7 km/h
Min-Datum _ 14.06.14 13.06.14 09.06.14 - 09.06.14 - 15.06.14 14.06.14 09.06.14
_ Min-Zeit 06:19 17:19 18:19 - 01:19 - 05:19 06:19 01:19
Minimum _ 10,2 C 20 % 984,8 hPa - 0,0 km/h - 5,6 C 10,2 C 0,0 km/h
Max-Datum _ 09.06.14 12.06.14 12.06.14 09.06.14 15.06.14 - 12.06.14 09.06.14 15.06.14
_ Max-Zeit 18:19 06:19 00:19 00:19 10:19 - 15:19 18:19 10:19
Maximum _ 44,5 C 84 % 994,4 hPa 0,0 l/m 34,3 km/h
N-NO
- 20,4 C 44,5 C 19,1 km/h
N-NO
Durchschnitt _ 24,9 C 52 % 989,5 hPa #0,0 l/m 2,8 km/h N-NO 13,3 C 24,8 C 1,6 km/h
www.sexauwetter.de